PWSweather.com
Personal Weather Stations
Station Observations
GEELONGWX1
Bell Post Hill, GeelongAU

Bell Post HillGeelongAU

Lat: -38.101, Lon: 144.326

Elevation: 204

Station Type: Davis Vantage Pro2

http://www.geelongweather.com

High Low Average
Temperature 75.3°F24.1°F 56.1°F13.4°F 63.7°F17.6°F
Dew Point 2018.0°F1103.3°F 52.4°F11.3°F 69.8°F21.0°F
Winds 8.1 mph -13.0 mph - Calm Calm 3.5 mph 5.6 mph
Wind Gusts 16.1 mph25.9 mph -- 5.8 mph9.3 mph
Humidity 180% 47% 77%
Pressure 29.99 in1015.60 in 29.88 in1011.90 in -
Precipitation 0.50 in12.70 in - -
Hour Temp Dew Point Humidity Winds Wind Gusts Pressure Precip Precip Rate Daily Precip Total
12:00 AM 59.7°F15.4°C 57.4°F14.1°C 92% Calm Calm 1.2 mph1.9 kmh 29.96 in1014.6 mb - 0.00 in0.0 mm 0.00 in0.0 mm
12:10 AM 59.6°F15.3°C 57.3°F14.1°C 92% 1.2 mph SSW1.9 kmh SSW 2.3 mph3.7 kmh 29.96 in1014.6 mb - 0.00 in0.0 mm 0.00 in0.0 mm
12:20 AM 59.5°F15.3°C 57.2°F14.0°C 92% 1.2 mph SSW1.9 kmh SSW 2.3 mph3.7 kmh 29.95 in1014.2 mb - 0.00 in0.0 mm 0.00 in0.0 mm
12:30 AM 59.4°F15.2°C 57.1°F13.9°C 92% Calm Calm -- 29.95 in1014.2 mb - 0.00 in0.0 mm 0.00 in0.0 mm
12:40 AM 59.3°F15.2°C 57.0°F13.9°C 92% Calm Calm -- 29.95 in1014.2 mb - 0.00 in0.0 mm 0.00 in0.0 mm
12:50 AM 59.3°F15.2°C 57.0°F13.9°C 92% Calm Calm -- 29.95 in1014.2 mb - 0.00 in0.0 mm 0.00 in0.0 mm
01:00 AM 59.2°F15.1°C 56.9°F13.8°C 92% Calm Calm -- 29.95 in1014.2 mb - 0.00 in0.0 mm 0.00 in0.0 mm
01:10 AM 59.2°F15.1°C 56.9°F13.8°C 92% Calm Calm 1.2 mph1.9 kmh 29.95 in1014.2 mb - 0.00 in0.0 mm 0.00 in0.0 mm
01:20 AM 59.3°F15.2°C 57.2°F14.0°C 93% Calm Calm -- 29.95 in1014.2 mb - 0.00 in0.0 mm 0.00 in0.0 mm
01:30 AM 59.3°F15.2°C 57.3°F14.1°C 93% Calm Calm 1.2 mph1.9 kmh 29.95 in1014.2 mb - 0.00 in0.0 mm 0.00 in0.0 mm
01:40 AM 59.3°F15.2°C 57.3°F14.1°C 93% 1.2 mph SSW1.9 kmh SSW 2.3 mph3.7 kmh 29.95 in1014.2 mb - 0.00 in0.0 mm 0.00 in0.0 mm
01:50 AM 59.3°F15.2°C 57.3°F14.1°C 93% 1.2 mph SSW1.9 kmh SSW 1.2 mph1.9 kmh 29.96 in1014.6 mb - 0.00 in0.0 mm 0.00 in0.0 mm
02:00 AM 59.3°F15.2°C 57.3°F14.1°C 93% Calm Calm 1.2 mph1.9 kmh 29.96 in1014.6 mb - 0.00 in0.0 mm 0.00 in0.0 mm
02:10 AM 59.4°F15.2°C 57.4°F14.1°C 93% 2.3 mph SW3.7 kmh SW 3.5 mph5.6 kmh 29.95 in1014.2 mb - 0.00 in0.0 mm 0.00 in0.0 mm
02:20 AM 59.5°F15.3°C 57.5°F14.2°C 93% 1.2 mph WSW1.9 kmh WSW 2.3 mph3.7 kmh 29.95 in1014.2 mb - 0.00 in0.0 mm 0.00 in0.0 mm
02:30 AM 59.4°F15.2°C 57.4°F14.1°C 93% Calm Calm 1.2 mph1.9 kmh 29.95 in1014.2 mb - 0.00 in0.0 mm 0.00 in0.0 mm
02:40 AM 59.3°F15.2°C 57.3°F14.1°C 93% Calm Calm -- 29.94 in1013.9 mb - 0.00 in0.0 mm 0.00 in0.0 mm
02:50 AM 59.2°F15.1°C 57.2°F14.0°C 93% Calm Calm 1.2 mph1.9 kmh 29.94 in1013.9 mb - 0.00 in0.0 mm 0.00 in0.0 mm
03:00 AM 59.1°F15.1°C 57.1°F13.9°C 93% Calm Calm 2.3 mph3.7 kmh 29.94 in1013.9 mb - 0.00 in0.0 mm 0.00 in0.0 mm
03:30 AM 58.6°F14.8°C 56.6°F13.7°C 93% Calm Calm -- 29.94 in1013.9 mb - 0.00 in0.0 mm 0.00 in0.0 mm
04:40 AM 56.9°F13.8°C 2018.0°F1103.3°C 180% Calm Calm -- 29.90 in1012.5 mb 0.00 in0.0 mm 0.00 in0.0 mm 0.00 in0.0 mm
05:00 AM 56.5°F13.6°C 54.2°F12.3°C 92% Calm Calm -- 29.96 in1014.6 mb - 0.00 in0.0 mm 0.00 in0.0 mm
05:10 AM 56.4°F13.6°C 54.4°F12.4°C 93% Calm Calm 1.2 mph1.9 kmh 29.95 in1014.2 mb - 0.00 in0.0 mm 0.00 in0.0 mm
05:20 AM 56.3°F13.5°C 54.3°F12.4°C 93% Calm Calm 1.2 mph1.9 kmh 29.96 in1014.6 mb - 0.00 in0.0 mm 0.00 in0.0 mm
05:30 AM 56.3°F13.5°C 54.3°F12.4°C 93% 1.2 mph NW1.9 kmh NW 2.3 mph3.7 kmh 29.96 in1014.6 mb - 0.00 in0.0 mm 0.00 in0.0 mm
05:40 AM 56.2°F13.4°C 54.2°F12.3°C 93% 1.2 mph NW1.9 kmh NW 3.5 mph5.6 kmh 29.96 in1014.6 mb - 0.00 in0.0 mm 0.00 in0.0 mm
05:50 AM 56.2°F13.4°C 54.2°F12.3°C 93% Calm Calm -- 29.96 in1014.6 mb - 0.00 in0.0 mm 0.00 in0.0 mm
06:00 AM 56.2°F13.4°C 54.2°F12.3°C 93% Calm Calm -- 29.97 in1014.9 mb - 0.00 in0.0 mm 0.00 in0.0 mm
06:10 AM 56.1°F13.4°C 54.1°F12.3°C 93% 1.2 mph NW1.9 kmh NW 3.5 mph5.6 kmh 29.97 in1014.9 mb - 0.00 in0.0 mm 0.00 in0.0 mm
06:20 AM 56.1°F13.4°C 54.1°F12.3°C 93% 2.3 mph WSW3.7 kmh WSW 5.8 mph9.3 kmh 29.97 in1014.9 mb - 0.00 in0.0 mm 0.00 in0.0 mm
06:30 AM 56.1°F13.4°C 54.1°F12.3°C 93% 2.3 mph SW3.7 kmh SW 5.8 mph9.3 kmh 29.98 in1015.2 mb - 0.00 in0.0 mm 0.00 in0.0 mm
06:40 AM 56.3°F13.5°C 54.3°F12.4°C 93% 2.3 mph SW3.7 kmh SW 3.5 mph5.6 kmh 29.98 in1015.2 mb - 0.00 in0.0 mm 0.00 in0.0 mm
06:50 AM 56.4°F13.6°C 54.4°F12.4°C 93% 2.3 mph SW3.7 kmh SW 4.6 mph7.4 kmh 29.98 in1015.2 mb - 0.00 in0.0 mm 0.00 in0.0 mm
07:00 AM 56.5°F13.6°C 54.5°F12.5°C 93% 2.3 mph SW3.7 kmh SW 4.6 mph7.4 kmh 29.99 in1015.6 mb - 0.00 in0.0 mm 0.00 in0.0 mm
07:10 AM 56.6°F13.7°C 54.6°F12.6°C 93% 2.3 mph SW3.7 kmh SW 2.3 mph3.7 kmh 29.99 in1015.6 mb - 0.00 in0.0 mm 0.00 in0.0 mm
07:20 AM 56.7°F13.7°C 54.7°F12.6°C 93% 2.3 mph SSW3.7 kmh SSW 3.5 mph5.6 kmh 29.99 in1015.6 mb - 0.00 in0.0 mm 0.00 in0.0 mm
07:30 AM 57.0°F13.9°C 55.0°F12.8°C 93% 1.2 mph SSW1.9 kmh SSW 2.3 mph3.7 kmh 29.99 in1015.6 mb - 0.00 in0.0 mm 0.00 in0.0 mm
07:40 AM 57.3°F14.1°C 55.3°F12.9°C 93% Calm Calm 2.3 mph3.7 kmh 29.99 in1015.6 mb - 0.00 in0.0 mm 0.00 in0.0 mm
07:50 AM 57.8°F14.3°C 55.8°F13.2°C 93% 1.2 mph SSW1.9 kmh SSW 2.3 mph3.7 kmh 29.99 in1015.6 mb - 0.00 in0.0 mm 0.00 in0.0 mm
08:00 AM 58.5°F14.7°C 56.5°F13.6°C 93% 3.5 mph WSW5.6 kmh WSW 3.5 mph5.6 kmh 29.99 in1015.6 mb - 0.00 in0.0 mm 0.00 in0.0 mm
08:10 AM 59.0°F15.0°C 57.0°F13.9°C 93% 3.5 mph WSW5.6 kmh WSW 4.6 mph7.4 kmh 29.99 in1015.6 mb - 0.00 in0.0 mm 0.00 in0.0 mm
08:20 AM 59.2°F15.1°C 56.9°F13.8°C 92% 4.6 mph SW7.4 kmh SW 6.9 mph11.1 kmh 29.98 in1015.2 mb - 0.00 in0.0 mm 0.00 in0.0 mm
08:30 AM 59.7°F15.4°C 57.1°F13.9°C 91% 5.8 mph SW9.3 kmh SW 5.8 mph9.3 kmh 29.98 in1015.2 mb - 0.00 in0.0 mm 0.00 in0.0 mm
08:40 AM 60.0°F15.6°C 57.1°F13.9°C 90% 3.5 mph SW5.6 kmh SW 6.9 mph11.1 kmh 29.98 in1015.2 mb - 0.00 in0.0 mm 0.00 in0.0 mm
08:50 AM 60.8°F16.0°C 57.9°F14.4°C 90% 3.5 mph SW5.6 kmh SW 4.6 mph7.4 kmh 29.99 in1015.6 mb - 0.00 in0.0 mm 0.00 in0.0 mm
09:00 AM 61.9°F16.6°C 58.3°F14.6°C 88% 4.6 mph SW7.4 kmh SW 8.1 mph13.0 kmh 29.99 in1015.6 mb - 0.00 in0.0 mm 0.00 in0.0 mm
09:10 AM 62.7°F17.1°C 57.5°F14.2°C 83% 5.8 mph SW9.3 kmh SW 5.8 mph9.3 kmh 29.99 in1015.6 mb - 0.00 in0.0 mm 0.00 in0.0 mm
09:20 AM 63.4°F17.4°C 57.5°F14.2°C 81% 3.5 mph WSW5.6 kmh WSW 5.8 mph9.3 kmh 29.99 in1015.6 mb - 0.00 in0.0 mm 0.00 in0.0 mm
09:30 AM 63.8°F17.7°C 57.2°F14.0°C 79% 5.8 mph SW9.3 kmh SW 8.1 mph13.0 kmh 29.99 in1015.6 mb - 0.00 in0.0 mm 0.00 in0.0 mm
09:40 AM 64.8°F18.2°C 57.0°F13.9°C 76% 8.1 mph SW13.0 kmh SW 11.5 mph18.5 kmh 29.99 in1015.6 mb - 0.00 in0.0 mm 0.00 in0.0 mm
09:50 AM 66.8°F19.3°C 56.7°F13.7°C 70% 5.8 mph WSW9.3 kmh WSW 8.1 mph13.0 kmh 29.99 in1015.6 mb - 0.01 in0.3 mm 0.01 in0.3 mm
10:00 AM 67.5°F19.7°C 56.1°F13.4°C 67% 5.8 mph WSW9.3 kmh WSW 9.2 mph14.8 kmh 29.99 in1015.6 mb - 0.00 in0.0 mm 0.01 in0.3 mm
10:10 AM 67.6°F19.8°C 56.3°F13.5°C 67% 5.8 mph SW9.3 kmh SW 10.4 mph16.7 kmh 29.99 in1015.6 mb - 0.00 in0.0 mm 0.01 in0.3 mm
10:20 AM 67.6°F19.8°C 55.4°F13.0°C 65% 3.5 mph SW5.6 kmh SW 5.8 mph9.3 kmh 29.99 in1015.6 mb - 0.00 in0.0 mm 0.01 in0.3 mm
10:30 AM 67.6°F19.8°C 55.4°F13.0°C 65% 6.9 mph SW11.1 kmh SW 11.5 mph18.5 kmh 29.98 in1015.2 mb - 0.00 in0.0 mm 0.01 in0.3 mm
10:40 AM 67.4°F19.7°C 55.2°F12.9°C 65% 5.8 mph SW9.3 kmh SW 6.9 mph11.1 kmh 29.98 in1015.2 mb - 0.00 in0.0 mm 0.01 in0.3 mm
10:50 AM 67.1°F19.5°C 55.0°F12.8°C 65% 5.8 mph SW9.3 kmh SW 8.1 mph13.0 kmh 29.98 in1015.2 mb - 0.00 in0.0 mm 0.01 in0.3 mm
11:00 AM 66.8°F19.3°C 55.1°F12.8°C 66% 4.6 mph SW7.4 kmh SW 6.9 mph11.1 kmh 29.97 in1014.9 mb - 0.00 in0.0 mm 0.01 in0.3 mm
11:10 AM 67.0°F19.4°C 54.8°F12.7°C 65% 4.6 mph WSW7.4 kmh WSW 10.4 mph16.7 kmh 29.97 in1014.9 mb - 0.00 in0.0 mm 0.01 in0.3 mm
11:20 AM 67.3°F19.6°C 54.7°F12.6°C 64% 4.6 mph WSW7.4 kmh WSW 4.6 mph7.4 kmh 29.97 in1014.9 mb - 0.00 in0.0 mm 0.01 in0.3 mm
11:30 AM 67.8°F19.9°C 54.7°F12.6°C 63% 4.6 mph WSW7.4 kmh WSW 6.9 mph11.1 kmh 29.97 in1014.9 mb - 0.00 in0.0 mm 0.01 in0.3 mm
11:40 AM 68.2°F20.1°C 54.7°F12.6°C 62% 4.6 mph W7.4 kmh W 6.9 mph11.1 kmh 29.97 in1014.9 mb - 0.00 in0.0 mm 0.01 in0.3 mm
11:50 AM 68.1°F20.1°C 54.1°F12.3°C 61% 4.6 mph W7.4 kmh W 8.1 mph13.0 kmh 29.96 in1014.6 mb - 0.00 in0.0 mm 0.01 in0.3 mm
12:00 PM 68.5°F20.3°C 54.1°F12.3°C 60% 4.6 mph WSW7.4 kmh WSW 10.4 mph16.7 kmh 29.96 in1014.6 mb - 0.00 in0.0 mm 0.01 in0.3 mm
12:10 PM 69.0°F20.6°C 54.6°F12.6°C 60% 2.3 mph WNW3.7 kmh WNW 3.5 mph5.6 kmh 29.95 in1014.2 mb - 0.00 in0.0 mm 0.01 in0.3 mm
12:20 PM 70.6°F21.4°C 54.6°F12.6°C 57% 6.9 mph WNW11.1 kmh WNW 9.2 mph14.8 kmh 29.94 in1013.9 mb - 0.00 in0.0 mm 0.01 in0.3 mm
12:30 PM 71.2°F21.8°C 54.7°F12.6°C 56% 5.8 mph NW9.3 kmh NW 8.1 mph13.0 kmh 29.93 in1013.5 mb - 0.00 in0.0 mm 0.01 in0.3 mm
12:40 PM 71.3°F21.8°C 54.8°F12.7°C 56% 2.3 mph NW3.7 kmh NW 3.5 mph5.6 kmh 29.93 in1013.5 mb - 0.00 in0.0 mm 0.01 in0.3 mm
12:50 PM 71.3°F21.8°C 54.3°F12.4°C 55% 3.5 mph WSW5.6 kmh WSW 6.9 mph11.1 kmh 29.93 in1013.5 mb - 0.00 in0.0 mm 0.01 in0.3 mm
01:00 PM 70.8°F21.6°C 53.8°F12.1°C 55% 1.2 mph W1.9 kmh W 2.3 mph3.7 kmh 29.93 in1013.5 mb - 0.00 in0.0 mm 0.01 in0.3 mm
01:10 PM 71.3°F21.8°C 53.8°F12.1°C 54% 3.5 mph WNW5.6 kmh WNW 6.9 mph11.1 kmh 29.92 in1013.2 mb - 0.00 in0.0 mm 0.01 in0.3 mm
01:20 PM 72.1°F22.3°C 54.0°F12.2°C 53% 5.8 mph WNW9.3 kmh WNW 8.1 mph13.0 kmh 29.92 in1013.2 mb - 0.00 in0.0 mm 0.01 in0.3 mm
01:30 PM 72.8°F22.7°C 53.6°F12.0°C 51% 6.9 mph SW11.1 kmh SW 12.7 mph20.4 kmh 29.91 in1012.9 mb - 0.00 in0.0 mm 0.01 in0.3 mm
01:40 PM 73.5°F23.1°C 53.7°F12.1°C 50% 4.6 mph WSW7.4 kmh WSW 8.1 mph13.0 kmh 29.91 in1012.9 mb - 0.00 in0.0 mm 0.01 in0.3 mm
01:50 PM 74.2°F23.4°C 53.8°F12.1°C 49% 3.5 mph W5.6 kmh W 4.6 mph7.4 kmh 29.90 in1012.5 mb - 0.00 in0.0 mm 0.01 in0.3 mm
02:00 PM 74.0°F23.3°C 53.6°F12.0°C 49% 3.5 mph WNW5.6 kmh WNW 6.9 mph11.1 kmh 29.90 in1012.5 mb - 0.00 in0.0 mm 0.01 in0.3 mm
02:10 PM 73.7°F23.2°C 53.3°F11.8°C 49% 4.6 mph WSW7.4 kmh WSW 5.8 mph9.3 kmh 29.89 in1012.2 mb - 0.00 in0.0 mm 0.01 in0.3 mm
02:20 PM 73.3°F22.9°C 52.4°F11.3°C 48% 3.5 mph WSW5.6 kmh WSW 5.8 mph9.3 kmh 29.89 in1012.2 mb - 0.00 in0.0 mm 0.01 in0.3 mm
02:30 PM 73.8°F23.2°C 53.4°F11.9°C 49% 4.6 mph NNW7.4 kmh NNW 9.2 mph14.8 kmh 29.89 in1012.2 mb - 0.00 in0.0 mm 0.01 in0.3 mm
02:40 PM 73.8°F23.2°C 53.4°F11.9°C 49% 5.8 mph W9.3 kmh W 10.4 mph16.7 kmh 29.89 in1012.2 mb - 0.00 in0.0 mm 0.01 in0.3 mm
02:50 PM 73.4°F23.0°C 53.6°F12.0°C 50% 4.6 mph WSW7.4 kmh WSW 11.5 mph18.5 kmh 29.88 in1011.9 mb - 0.00 in0.0 mm 0.01 in0.3 mm
03:00 PM 73.5°F23.1°C 54.2°F12.3°C 51% 4.6 mph W7.4 kmh W 10.4 mph16.7 kmh 29.88 in1011.9 mb - 0.00 in0.0 mm 0.01 in0.3 mm
03:10 PM 73.2°F22.9°C 53.5°F11.9°C 50% 4.6 mph WSW7.4 kmh WSW 6.9 mph11.1 kmh 29.88 in1011.9 mb - 0.00 in0.0 mm 0.01 in0.3 mm
03:20 PM 73.2°F22.9°C 53.4°F11.9°C 50% 5.8 mph SW9.3 kmh SW 8.1 mph13.0 kmh 29.88 in1011.9 mb - 0.00 in0.0 mm 0.01 in0.3 mm
03:30 PM 74.1°F23.4°C 53.7°F12.1°C 49% 5.8 mph WSW9.3 kmh WSW 11.5 mph18.5 kmh 29.88 in1011.9 mb - 0.00 in0.0 mm 0.01 in0.3 mm
03:40 PM 75.1°F23.9°C 53.5°F11.9°C 47% 5.8 mph W9.3 kmh W 11.5 mph18.5 kmh 29.88 in1011.9 mb - 0.00 in0.0 mm 0.01 in0.3 mm
03:50 PM 75.3°F24.1°C 53.7°F12.1°C 47% 8.1 mph WSW13.0 kmh WSW 15.0 mph24.1 kmh 29.88 in1011.9 mb - 0.00 in0.0 mm 0.01 in0.3 mm
04:00 PM 75.3°F24.1°C 53.7°F12.1°C 47% 6.9 mph SW11.1 kmh SW 11.5 mph18.5 kmh 29.88 in1011.9 mb - 0.00 in0.0 mm 0.01 in0.3 mm
04:10 PM 74.6°F23.7°C 53.6°F12.0°C 48% 8.1 mph SW13.0 kmh SW 10.4 mph16.7 kmh 29.88 in1011.9 mb - 0.00 in0.0 mm 0.01 in0.3 mm
04:20 PM 73.5°F23.1°C 53.7°F12.1°C 50% 5.8 mph WSW9.3 kmh WSW 8.1 mph13.0 kmh 29.88 in1011.9 mb - 0.00 in0.0 mm 0.01 in0.3 mm
04:30 PM 73.5°F23.1°C 53.7°F12.1°C 50% 8.1 mph WSW13.0 kmh WSW 9.2 mph14.8 kmh 29.88 in1011.9 mb - 0.00 in0.0 mm 0.01 in0.3 mm
04:40 PM 73.8°F23.2°C 54.0°F12.2°C 50% 8.1 mph W13.0 kmh W 12.7 mph20.4 kmh 29.88 in1011.9 mb - 0.00 in0.0 mm 0.01 in0.3 mm
04:50 PM 73.3°F22.9°C 53.0°F11.7°C 49% 5.8 mph WSW9.3 kmh WSW 11.5 mph18.5 kmh 29.88 in1011.9 mb - 0.00 in0.0 mm 0.01 in0.3 mm
05:00 PM 72.8°F22.7°C 53.6°F12.0°C 51% 6.9 mph WSW11.1 kmh WSW 11.5 mph18.5 kmh 29.89 in1012.2 mb - 0.00 in0.0 mm 0.01 in0.3 mm
05:10 PM 71.9°F22.2°C 53.8°F12.1°C 53% 5.8 mph W9.3 kmh W 8.1 mph13.0 kmh 29.89 in1012.2 mb - 0.00 in0.0 mm 0.01 in0.3 mm
05:20 PM 70.9°F21.6°C 53.5°F11.9°C 54% 4.6 mph W7.4 kmh W 8.1 mph13.0 kmh 29.89 in1012.2 mb - 0.00 in0.0 mm 0.01 in0.3 mm
05:30 PM 70.2°F21.2°C 53.3°F11.8°C 55% 4.6 mph W7.4 kmh W 8.1 mph13.0 kmh 29.89 in1012.2 mb - 0.00 in0.0 mm 0.01 in0.3 mm
05:40 PM 69.7°F20.9°C 53.7°F12.1°C 57% 5.8 mph S9.3 kmh S 6.9 mph11.1 kmh 29.90 in1012.5 mb - 0.00 in0.0 mm 0.01 in0.3 mm
05:50 PM 69.0°F20.6°C 55.9°F13.3°C 63% 5.8 mph SSE9.3 kmh SSE 6.9 mph11.1 kmh 29.91 in1012.9 mb - 0.00 in0.0 mm 0.01 in0.3 mm
06:00 PM 67.9°F19.9°C 56.1°F13.4°C 66% 8.1 mph S13.0 kmh S 16.1 mph25.9 kmh 29.91 in1012.9 mb - 0.00 in0.0 mm 0.01 in0.3 mm
06:10 PM 66.5°F19.2°C 56.0°F13.3°C 69% 5.8 mph S9.3 kmh S 5.8 mph9.3 kmh 29.92 in1013.2 mb - 0.00 in0.0 mm 0.01 in0.3 mm
06:20 PM 65.3°F18.5°C 55.2°F12.9°C 70% 6.9 mph S11.1 kmh S 10.4 mph16.7 kmh 29.93 in1013.5 mb - 0.00 in0.0 mm 0.01 in0.3 mm
06:30 PM 64.4°F18.0°C 55.2°F12.9°C 72% 4.6 mph S7.4 kmh S 6.9 mph11.1 kmh 29.93 in1013.5 mb - 0.00 in0.0 mm 0.01 in0.3 mm
06:40 PM 63.6°F17.6°C 54.8°F12.7°C 73% 3.5 mph S5.6 kmh S 8.1 mph13.0 kmh 29.93 in1013.5 mb - 0.00 in0.0 mm 0.01 in0.3 mm
06:50 PM 63.0°F17.2°C 55.0°F12.8°C 75% 6.9 mph S11.1 kmh S 9.2 mph14.8 kmh 29.93 in1013.5 mb - 0.00 in0.0 mm 0.01 in0.3 mm
07:00 PM 62.5°F16.9°C 54.8°F12.7°C 76% 5.8 mph SSW9.3 kmh SSW 9.2 mph14.8 kmh 29.94 in1013.9 mb - 0.00 in0.0 mm 0.01 in0.3 mm
07:10 PM 62.0°F16.7°C 55.1°F12.8°C 78% 8.1 mph SSW13.0 kmh SSW 11.5 mph18.5 kmh 29.94 in1013.9 mb - 0.00 in0.0 mm 0.01 in0.3 mm
07:20 PM 61.4°F16.3°C 54.8°F12.7°C 79% 2.3 mph S3.7 kmh S 6.9 mph11.1 kmh 29.94 in1013.9 mb - 0.00 in0.0 mm 0.01 in0.3 mm
07:30 PM 61.0°F16.1°C 54.4°F12.4°C 79% 5.8 mph SW9.3 kmh SW 10.4 mph16.7 kmh 29.94 in1013.9 mb - 0.00 in0.0 mm 0.01 in0.3 mm
07:40 PM 60.7°F15.9°C 54.9°F12.7°C 81% 4.6 mph SSW7.4 kmh SSW 6.9 mph11.1 kmh 29.95 in1014.2 mb - 0.00 in0.0 mm 0.01 in0.3 mm
07:50 PM 60.7°F15.9°C 55.2°F12.9°C 82% 5.8 mph SW9.3 kmh SW 9.2 mph14.8 kmh 29.95 in1014.2 mb - 0.03 in0.8 mm 0.04 in1.0 mm
08:00 PM 60.5°F15.8°C 55.3°F12.9°C 83% 2.3 mph SW3.7 kmh SW 4.6 mph7.4 kmh 29.95 in1014.2 mb - 0.04 in1.0 mm 0.08 in2.0 mm
08:10 PM 60.2°F15.7°C 55.3°F12.9°C 84% 3.5 mph SW5.6 kmh SW 3.5 mph5.6 kmh 29.95 in1014.2 mb - 0.02 in0.5 mm 0.09 in2.3 mm
08:20 PM 60.0°F15.6°C 55.5°F13.1°C 85% 1.2 mph SW1.9 kmh SW 3.5 mph5.6 kmh 29.96 in1014.6 mb - 0.02 in0.5 mm 0.11 in2.8 mm
08:30 PM 59.8°F15.4°C 55.6°F13.1°C 86% 2.3 mph SW3.7 kmh SW 5.8 mph9.3 kmh 29.96 in1014.6 mb - 0.02 in0.5 mm 0.11 in2.8 mm
08:40 PM 59.6°F15.3°C 55.7°F13.2°C 87% 4.6 mph SW7.4 kmh SW 6.9 mph11.1 kmh 29.96 in1014.6 mb - 0.01 in0.3 mm 0.12 in3.0 mm
08:50 PM 59.3°F15.2°C 55.4°F13.0°C 87% 2.3 mph SW3.7 kmh SW 3.5 mph5.6 kmh 29.96 in1014.6 mb - 0.01 in0.3 mm 0.13 in3.3 mm
09:00 PM 59.1°F15.1°C 55.3°F12.9°C 87% 2.3 mph SW3.7 kmh SW 4.6 mph7.4 kmh 29.96 in1014.6 mb - 0.00 in0.0 mm 0.13 in3.3 mm
09:10 PM 59.1°F15.1°C 55.5°F13.1°C 88% 2.3 mph SW3.7 kmh SW 3.5 mph5.6 kmh 29.96 in1014.6 mb - 0.03 in0.8 mm 0.16 in4.1 mm
09:20 PM 59.0°F15.0°C 55.4°F13.0°C 88% 1.2 mph WSW1.9 kmh WSW 2.3 mph3.7 kmh 29.96 in1014.6 mb - 0.00 in0.0 mm 0.16 in4.1 mm
09:30 PM 58.9°F14.9°C 55.4°F13.0°C 88% 2.3 mph WSW3.7 kmh WSW 3.5 mph5.6 kmh 29.96 in1014.6 mb - 0.02 in0.5 mm 0.18 in4.6 mm
09:40 PM 58.9°F14.9°C 55.7°F13.2°C 89% 1.2 mph SW1.9 kmh SW 3.5 mph5.6 kmh 29.96 in1014.6 mb - 0.04 in1.0 mm 0.22 in5.6 mm
09:50 PM 58.9°F14.9°C 55.7°F13.2°C 89% 3.5 mph WSW5.6 kmh WSW 4.6 mph7.4 kmh 29.96 in1014.6 mb - 0.03 in0.8 mm 0.25 in6.4 mm
10:00 PM 58.8°F14.9°C 55.6°F13.1°C 89% 2.3 mph WSW3.7 kmh WSW 3.5 mph5.6 kmh 29.96 in1014.6 mb - 0.00 in0.0 mm 0.25 in6.4 mm
10:10 PM 58.8°F14.9°C 55.9°F13.3°C 90% 4.6 mph WSW7.4 kmh WSW 6.9 mph11.1 kmh 29.96 in1014.6 mb - 0.00 in0.0 mm 0.25 in6.4 mm
10:20 PM 58.7°F14.8°C 55.8°F13.2°C 90% 3.5 mph SW5.6 kmh SW 3.5 mph5.6 kmh 29.96 in1014.6 mb - 0.02 in0.5 mm 0.26 in6.6 mm
10:30 PM 58.6°F14.8°C 55.7°F13.2°C 90% 2.3 mph WSW3.7 kmh WSW 2.3 mph3.7 kmh 29.96 in1014.6 mb - 0.03 in0.8 mm 0.29 in7.4 mm
10:40 PM 58.6°F14.8°C 55.6°F13.1°C 90% 1.2 mph SW1.9 kmh SW 4.6 mph7.4 kmh 29.96 in1014.6 mb - 0.02 in0.5 mm 0.31 in7.9 mm
10:50 PM 58.5°F14.7°C 55.6°F13.1°C 90% 2.3 mph W3.7 kmh W 3.5 mph5.6 kmh 29.96 in1014.6 mb - 0.01 in0.3 mm 0.32 in8.1 mm
11:00 PM 58.5°F14.7°C 55.9°F13.3°C 91% 1.2 mph WSW1.9 kmh WSW 3.5 mph5.6 kmh 29.95 in1014.2 mb - 0.01 in0.3 mm 0.37 in9.4 mm
11:10 PM 58.5°F14.7°C 55.9°F13.3°C 91% 3.5 mph SW5.6 kmh SW 5.8 mph9.3 kmh 29.95 in1014.2 mb - 0.02 in0.5 mm 0.02 in0.5 mm
11:20 PM 58.3°F14.6°C 55.7°F13.2°C 91% 4.6 mph SW7.4 kmh SW 10.4 mph16.7 kmh 29.95 in1014.2 mb - 0.03 in0.8 mm 0.04 in1.0 mm
11:30 PM 58.0°F14.4°C 55.4°F13.0°C 91% 2.3 mph SW3.7 kmh SW 6.9 mph11.1 kmh 29.95 in1014.2 mb - 0.03 in0.8 mm 0.05 in1.3 mm
11:40 PM 57.9°F14.4°C 55.3°F12.9°C 91% 2.3 mph SSW3.7 kmh SSW 5.8 mph9.3 kmh 29.95 in1014.2 mb - 0.03 in0.8 mm 0.08 in2.0 mm
11:50 PM 57.8°F14.3°C 55.2°F12.9°C 91% 4.6 mph SW7.4 kmh SW 8.1 mph13.0 kmh 29.95 in1014.2 mb - 0.02 in0.5 mm 0.10 in2.5 mm